createdAt,value
2022-10-01T00:03:36.291Z,34.73
2022-10-01T00:07:21.264Z,47.20
2022-10-01T00:11:22.325Z,40.83
2022-10-01T00:15:03.141Z,50.17
2022-10-01T00:19:00.260Z,46.03
2022-10-01T00:22:46.241Z,56.57
2022-10-01T00:26:43.285Z,46.40
2022-10-01T00:30:21.679Z,50.90
2022-10-01T00:34:13.255Z,51.73
2022-10-01T00:38:00.251Z,47.97
2022-10-01T00:42:02.266Z,48.80
2022-10-01T00:45:55.313Z,49.42
2022-10-01T00:49:42.262Z,48.43
2022-10-01T00:53:41.267Z,47.23
2022-10-01T00:57:34.260Z,45.83
2022-10-01T01:01:19.336Z,48.60
2022-10-01T01:05:12.367Z,46.37
2022-10-01T01:08:55.818Z,50.53
2022-10-01T01:12:56.269Z,48.72
2022-10-01T01:16:45.299Z,48.50
2022-10-01T01:20:49.298Z,50.60
2022-10-01T01:24:39.382Z,46.53
2022-10-01T01:28:39.325Z,47.83
2022-10-01T01:32:31.299Z,50.80
2022-10-01T01:36:39.336Z,48.40
2022-10-01T01:40:39.320Z,44.83
2022-10-01T01:44:34.317Z,48.67
2022-10-01T01:48:21.348Z,43.87
2022-10-01T01:52:20.289Z,41.47
2022-10-01T01:56:00.368Z,43.70
2022-10-01T01:59:52.293Z,44.97
2022-10-01T02:03:40.380Z,47.13
2022-10-01T02:07:49.394Z,46.53
2022-10-01T02:11:56.306Z,47.83
2022-10-01T02:16:25.403Z,50.22
2022-10-01T02:20:16.319Z,48.57
2022-10-01T02:24:20.399Z,48.15
2022-10-01T02:28:02.422Z,47.42
2022-10-01T02:31:55.315Z,49.43
2022-10-01T02:35:43.315Z,48.03
2022-10-01T02:39:45.312Z,42.85
2022-10-01T02:43:43.213Z,47.38
2022-10-01T02:47:44.300Z,42.20
2022-10-01T02:52:17.291Z,48.20
2022-10-01T02:56:04.371Z,46.00
2022-10-01T03:00:04.305Z,45.08
2022-10-01T03:03:56.315Z,40.27
2022-10-01T03:07:44.402Z,50.25
2022-10-01T03:11:36.586Z,43.25
2022-10-01T03:15:15.591Z,44.43
2022-10-01T03:19:07.498Z,47.50
2022-10-01T03:22:52.336Z,54.28
2022-10-01T03:26:44.343Z,45.63
2022-10-01T03:30:22.399Z,47.97
2022-10-01T03:34:14.343Z,46.05
2022-10-01T03:37:59.380Z,43.88
2022-10-01T03:41:51.373Z,40.53
2022-10-01T03:45:29.448Z,42.80
2022-10-01T03:49:21.340Z,49.00
2022-10-01T03:53:06.351Z,46.08
2022-10-01T03:56:58.329Z,48.20
2022-10-01T04:00:36.404Z,44.93
2022-10-01T04:04:28.363Z,54.03
2022-10-01T04:08:15.368Z,50.78
2022-10-01T04:12:07.364Z,51.33
2022-10-01T04:15:45.483Z,47.30
2022-10-01T04:19:37.400Z,44.67
2022-10-01T04:23:22.478Z,50.20
2022-10-01T04:27:14.539Z,45.90
2022-10-01T04:31:13.426Z,48.85
2022-10-01T04:35:05.366Z,54.65
2022-10-01T04:38:50.371Z,49.93
2022-10-01T04:42:42.405Z,47.33
2022-10-01T04:46:21.484Z,61.28
2022-10-01T04:50:13.416Z,56.85
2022-10-01T04:53:58.370Z,51.00
2022-10-01T04:57:50.382Z,55.85
2022-10-01T05:01:28.485Z,51.50
2022-10-01T05:05:20.363Z,54.00
2022-10-01T05:09:05.364Z,49.83
2022-10-01T05:12:58.392Z,48.75
2022-10-01T05:16:36.460Z,46.05
2022-10-01T05:20:32.400Z,55.63
2022-10-01T05:24:17.370Z,51.75
2022-10-01T05:28:12.379Z,59.92
2022-10-01T05:31:50.607Z,54.97
2022-10-01T05:35:42.379Z,50.60
2022-10-01T05:39:27.407Z,56.13
2022-10-01T05:43:26.369Z,44.63
2022-10-01T05:47:13.563Z,46.80
2022-10-01T05:51:05.369Z,47.00
2022-10-01T05:54:50.386Z,49.45
2022-10-01T05:58:43.469Z,40.67
2022-10-01T06:02:21.767Z,53.77
2022-10-01T06:06:13.408Z,51.33
2022-10-01T06:09:58.375Z,46.17
2022-10-01T06:13:51.398Z,39.90
2022-10-01T06:17:29.653Z,47.97
2022-10-01T06:21:22.400Z,43.07
2022-10-01T06:25:07.535Z,46.40
2022-10-01T06:28:55.462Z,40.28
2022-10-01T06:32:41.410Z,38.80
2022-10-01T06:36:33.398Z,37.77
2022-10-01T06:40:18.428Z,37.90
2022-10-01T06:44:03.658Z,35.08
2022-10-01T06:47:48.412Z,34.40
2022-10-01T06:51:58.415Z,33.20
2022-10-01T06:55:44.422Z,30.38
2022-10-01T06:59:29.491Z,29.40
2022-10-01T07:03:17.440Z,31.05
2022-10-01T07:07:10.435Z,24.00
2022-10-01T07:10:55.439Z,23.42
2022-10-01T07:14:40.541Z,24.05
2022-10-01T07:18:25.422Z,22.27
2022-10-01T07:22:17.443Z,22.57
2022-10-01T07:26:02.435Z,21.65
2022-10-01T07:29:47.505Z,17.30
2022-10-01T07:33:32.435Z,18.57
2022-10-01T07:37:24.463Z,17.70
2022-10-01T07:41:10.432Z,20.52
2022-10-01T07:44:55.681Z,18.00
2022-10-01T07:48:40.510Z,19.97
2022-10-01T07:52:32.427Z,14.90
2022-10-01T07:56:10.706Z,13.90
2022-10-01T08:00:05.540Z,16.10
2022-10-01T08:03:50.810Z,24.80
2022-10-01T08:07:45.451Z,18.33
2022-10-01T08:11:24.694Z,16.90
2022-10-01T08:15:17.463Z,13.40
2022-10-01T08:19:02.470Z,17.10
2022-10-01T08:22:54.504Z,13.90
2022-10-01T08:26:33.022Z,15.65
2022-10-01T08:30:24.485Z,15.55
2022-10-01T08:34:16.476Z,16.43
2022-10-01T08:38:02.473Z,14.33
2022-10-01T08:42:34.489Z,14.15
2022-10-01T08:46:37.456Z,15.43
2022-10-01T08:50:45.467Z,15.38
2022-10-01T08:54:55.466Z,13.53
2022-10-01T08:58:58.497Z,13.85
2022-10-01T09:02:59.479Z,14.80
2022-10-01T09:06:55.589Z,14.05
2022-10-01T09:10:55.479Z,13.77
2022-10-01T09:15:12.493Z,13.93
2022-10-01T09:19:11.471Z,14.38
2022-10-01T09:23:03.490Z,12.80
2022-10-01T09:27:00.540Z,14.03
2022-10-01T09:31:07.509Z,12.15
2022-10-01T09:35:12.486Z,14.23
2022-10-01T09:39:25.536Z,11.90
2022-10-01T09:43:10.506Z,13.47
2022-10-01T09:47:09.511Z,18.67
2022-10-01T09:51:12.551Z,13.57
2022-10-01T09:55:10.507Z,12.68
2022-10-01T09:59:01.513Z,21.77
2022-10-01T10:02:55.575Z,12.80
2022-10-01T10:06:37.020Z,13.23
2022-10-01T10:10:33.557Z,12.53
2022-10-01T10:14:19.519Z,12.77
2022-10-01T10:18:27.538Z,12.82
2022-10-01T10:22:35.535Z,13.70
2022-10-01T10:26:35.959Z,10.95
2022-10-01T10:30:33.521Z,9.73
2022-10-01T10:34:29.571Z,12.43
2022-10-01T10:38:14.558Z,12.88
2022-10-01T10:42:06.522Z,9.32
2022-10-01T10:45:55.559Z,7.80
2022-10-01T10:49:47.220Z,10.15
2022-10-01T10:53:40.546Z,10.35
2022-10-01T10:57:34.529Z,7.82
2022-10-01T11:01:29.606Z,8.87
2022-10-01T11:05:19.585Z,9.38
2022-10-01T11:09:22.556Z,10.98
2022-10-01T11:13:13.541Z,7.40
2022-10-01T11:17:37.565Z,8.20
2022-10-01T11:21:25.563Z,7.87
2022-10-01T11:25:37.548Z,8.02
2022-10-01T11:29:36.599Z,5.63
2022-10-01T11:33:28.550Z,7.43
2022-10-01T11:37:28.820Z,7.13
2022-10-01T11:41:35.608Z,6.28
2022-10-01T11:45:27.551Z,5.38
2022-10-01T11:49:24.655Z,6.90
2022-10-01T11:53:09.570Z,5.77
2022-10-01T11:57:24.630Z,6.63
2022-10-01T12:01:15.548Z,5.80
2022-10-01T12:05:16.652Z,6.53
2022-10-01T12:09:26.357Z,6.90
2022-10-01T12:13:24.556Z,8.77
2022-10-01T12:17:26.607Z,7.30
2022-10-01T12:21:17.609Z,6.93
2022-10-01T12:25:02.640Z,7.43
2022-10-01T12:29:08.572Z,7.77
2022-10-01T12:32:55.816Z,6.80
2022-10-01T12:37:13.573Z,7.57
2022-10-01T12:41:25.573Z,7.78
2022-10-01T12:45:43.608Z,6.53
2022-10-01T12:49:51.783Z,6.95
2022-10-01T12:53:52.594Z,8.68
2022-10-01T12:57:49.712Z,7.13
2022-10-01T13:02:01.698Z,8.67
2022-10-01T13:06:28.611Z,8.03
2022-10-01T13:10:48.763Z,6.80
2022-10-01T13:14:34.622Z,7.15
2022-10-01T13:18:46.616Z,7.50
2022-10-01T13:22:56.616Z,6.40
2022-10-01T13:27:26.629Z,7.88
2022-10-01T13:31:21.657Z,4.43
2022-10-01T13:35:07.608Z,4.78
2022-10-01T13:39:06.600Z,5.13
2022-10-01T13:43:08.619Z,4.00
2022-10-01T13:47:09.629Z,4.97
2022-10-01T13:51:26.627Z,4.82
2022-10-01T13:55:34.627Z,6.97
2022-10-01T13:59:45.734Z,8.17
2022-10-01T14:03:44.623Z,10.25
2022-10-01T14:07:41.654Z,4.63
2022-10-01T14:11:55.694Z,3.72
2022-10-01T14:16:01.269Z,5.83
2022-10-01T14:19:53.700Z,4.72
2022-10-01T14:23:54.620Z,4.93
2022-10-01T14:28:15.782Z,13.07
2022-10-01T14:32:09.680Z,3.63
2022-10-01T14:36:36.405Z,2.63
2022-10-01T14:40:31.059Z,2.40
2022-10-01T14:44:28.055Z,2.60
2022-10-01T14:48:27.049Z,3.67
2022-10-01T14:52:25.047Z,2.38
2022-10-01T14:56:14.048Z,4.07
2022-10-01T15:00:09.045Z,4.33
2022-10-01T15:03:50.257Z,4.72
2022-10-01T15:07:43.141Z,5.55
2022-10-01T15:11:44.190Z,3.70
2022-10-01T15:15:55.094Z,3.73
2022-10-01T15:19:59.066Z,4.38
2022-10-01T15:23:51.064Z,4.65
2022-10-01T15:27:37.065Z,5.50
2022-10-01T15:31:22.521Z,5.60
2022-10-01T15:35:16.062Z,6.78
2022-10-01T15:39:03.078Z,5.28
2022-10-01T15:43:14.675Z,7.17
2022-10-01T15:46:59.087Z,6.83
2022-10-01T15:50:53.194Z,8.25
2022-10-01T15:54:48.099Z,8.38
2022-10-01T15:58:36.737Z,7.53
2022-10-01T16:02:32.076Z,8.67
2022-10-01T16:06:21.108Z,9.27
2022-10-01T16:10:44.129Z,10.20
2022-10-01T16:14:40.084Z,9.13
2022-10-01T16:18:37.092Z,10.07
2022-10-01T16:22:40.082Z,9.90
2022-10-01T16:26:38.327Z,9.25
2022-10-01T16:30:33.057Z,10.23
2022-10-01T16:34:27.094Z,8.83
2022-10-01T16:38:08.372Z,9.52
2022-10-01T16:42:22.973Z,9.27
2022-10-01T16:46:08.351Z,10.30
2022-10-01T16:49:53.341Z,6.43
2022-10-01T16:53:46.090Z,7.57
2022-10-01T16:57:31.146Z,9.27
2022-10-01T17:01:28.175Z,9.93
2022-10-01T17:05:16.882Z,8.50
2022-10-01T17:09:08.151Z,10.60
2022-10-01T17:12:54.110Z,10.43
2022-10-01T17:16:39.638Z,8.73
2022-10-01T17:20:25.113Z,9.15
2022-10-01T17:24:19.135Z,11.15
2022-10-01T17:27:58.127Z,12.27
2022-10-01T17:31:59.186Z,11.83
2022-10-01T17:35:49.123Z,9.30
2022-10-01T17:39:41.167Z,10.13
2022-10-01T17:43:19.524Z,11.77
2022-10-01T17:47:11.147Z,6.57
2022-10-01T17:51:12.143Z,10.95
2022-10-01T17:54:57.124Z,6.88
2022-10-01T17:58:49.140Z,7.13
2022-10-01T18:02:41.932Z,9.50
2022-10-01T18:06:34.238Z,9.25
2022-10-01T18:10:15.292Z,8.70
2022-10-01T18:14:07.121Z,10.60
2022-10-01T18:18:38.079Z,7.72
2022-10-01T18:21:59.172Z,9.43
2022-10-01T18:25:51.131Z,19.58
2022-10-01T18:29:36.148Z,14.93
2022-10-01T18:33:21.187Z,11.45
2022-10-01T18:37:41.148Z,16.17
2022-10-01T18:41:30.215Z,11.53
2022-10-01T18:45:45.136Z,11.33
2022-10-01T18:50:06.174Z,12.48
2022-10-01T18:54:17.171Z,19.80
2022-10-01T18:58:26.145Z,14.83
2022-10-01T19:02:36.182Z,9.88
2022-10-01T19:06:27.146Z,12.93
2022-10-01T19:10:53.173Z,10.43
2022-10-01T19:15:04.156Z,8.00
2022-10-01T19:19:28.167Z,8.10
2022-10-01T19:23:37.150Z,8.65
2022-10-01T19:27:45.215Z,8.53
2022-10-01T19:31:30.400Z,9.10
2022-10-01T19:35:33.148Z,8.77
2022-10-01T19:39:26.180Z,10.27
2022-10-01T19:43:30.184Z,10.30
2022-10-01T19:47:18.379Z,10.53
2022-10-01T19:51:20.162Z,15.73
2022-10-01T19:55:07.167Z,7.63
2022-10-01T19:58:52.241Z,9.70
2022-10-01T20:02:47.303Z,9.10
2022-10-01T20:06:45.187Z,9.52
2022-10-01T20:10:36.191Z,8.45
2022-10-01T20:14:57.203Z,9.83
2022-10-01T20:18:58.212Z,10.40
2022-10-01T20:22:40.246Z,9.98
2022-10-01T20:26:35.469Z,6.82
2022-10-01T20:30:26.169Z,8.37
2022-10-01T20:34:25.125Z,10.40
2022-10-01T20:38:23.220Z,8.45
2022-10-01T20:42:08.199Z,9.30
2022-10-01T20:46:05.248Z,9.50
2022-10-01T20:49:50.760Z,9.10
2022-10-01T20:54:03.191Z,8.55
2022-10-01T20:57:57.217Z,8.85
2022-10-01T21:01:53.303Z,9.40
2022-10-01T21:05:41.853Z,7.80
2022-10-01T21:09:44.215Z,9.10
2022-10-01T21:13:37.265Z,7.47
2022-10-01T21:17:53.220Z,9.53
2022-10-01T21:21:52.312Z,9.60
2022-10-01T21:26:36.541Z,7.43
2022-10-01T21:30:25.217Z,8.83
2022-10-01T21:34:27.216Z,8.23
2022-10-01T21:38:27.434Z,6.80
2022-10-01T21:42:28.206Z,5.57
2022-10-01T21:46:39.380Z,7.70
2022-10-01T21:50:35.305Z,6.68
2022-10-01T21:54:35.232Z,7.88
2022-10-01T21:58:44.242Z,9.10
2022-10-01T22:03:07.248Z,5.53
2022-10-01T22:07:37.263Z,8.45
2022-10-01T22:11:36.263Z,5.13
2022-10-01T22:15:40.231Z,6.13
2022-10-01T22:19:38.261Z,4.90
2022-10-01T22:23:21.361Z,5.70
2022-10-01T22:27:22.229Z,7.25
2022-10-01T22:31:10.297Z,5.20
2022-10-01T22:35:09.283Z,6.47
2022-10-01T22:38:54.080Z,6.50
2022-10-01T22:42:50.271Z,5.70
2022-10-01T22:46:52.243Z,4.87
2022-10-01T22:51:05.244Z,5.67
2022-10-01T22:55:07.332Z,5.85
2022-10-01T22:59:13.264Z,7.25
2022-10-01T23:03:49.237Z,6.27
2022-10-01T23:07:51.263Z,7.23
2022-10-01T23:11:35.383Z,6.22
2022-10-01T23:15:48.257Z,6.03
2022-10-01T23:19:53.263Z,7.33
2022-10-01T23:23:33.137Z,6.90
2022-10-01T23:27:57.373Z,6.30
2022-10-01T23:32:04.303Z,8.23
2022-10-01T23:36:28.347Z,6.13
2022-10-01T23:40:27.274Z,6.57
2022-10-01T23:44:27.280Z,6.38
2022-10-01T23:48:26.284Z,6.63
2022-10-01T23:52:44.373Z,4.57
2022-10-01T23:56:57.330Z,5.03
